SAOU/LUQ METAR and TAF weather

Enter ICAO airport designator
Station Type Date Time Source
SAOU METAR 2019/02/21 22:35 UTC NOAA

SAOU 212235Z COR 11011KT 9999 FEW035 SCT045CB 34/21 Q1008 RESHRA


Station Type Date Time Source
SAOU Decoded METAR 2019/02/21 22:35 UTC NOAA

San Luis Aerodrome, Argentina (SAOU) 33-16S 066-21W 713M
Feb 21, 2019 - 05:35 PM EST / 2019.02.21 2235 UTC
Wind: from the ESE (110 degrees) at 13 MPH (11 KT):0
Visibility: greater than 7 mile(s):0
Sky conditions: partly cloudy
Weather: Cumulonimbus clouds observed
Temperature: 93 F (34 C)
Heat index: 98.4 F (36.9 C):1
Dew Point: 69 F (21 C)
Relative Humidity: 46%
Pressure (altimeter): 29.77 in. Hg (1008 hPa)
ob: SAOU 212235Z COR 11011KT 9999 FEW035 SCT045CB 34/21 Q1008 RESHRA
cycle: 22

Station Type Date Time Source
SAOU TAF 2019/02/22 06:21 UTC NOAA

TAF SAOU 220500Z 2206/2306 09010KT 9999 SCT030 TN22/2209Z TX35/2219Z
BECMG 2212/2214 18005KT 9999 FEW040
BECMG 2221/2223 14005KT 9999 VCTS BKN030 FEW040CBPROB40
TEMPO 2301/2305 14010KT 6000 TSRA BKN020 FEW030CB


Example: see airport list